Time;durP1;ratioP1;P1;durP2;ratioP2;P2;SDS_P1;SDS_P2;PMS_P1;PMS_P2;Temp;Humidity;BMP_temperature;BMP_pressure;BME280_temperature;BME280_humidity;BME280_pressure;Samples;Min_cycle;Max_cycle;Signal;HPM_P1;HPM_P2
2023/04/24 00:01:00;;;;;;;0.50;0.50;;;;;;;8.90;44.37;99212.84;6126763;23;20080;-89
2023/04/24 00:03:29;;;;;;;0.57;0.57;;;;;;;9.05;44.36;99227.75;6136184;23;20021;-90
2023/04/24 00:05:56;;;;;;;0.60;0.60;;;;;;;8.98;44.38;99222.47;6159676;23;20045;-90
2023/04/24 00:08:23;;;;;;;0.52;0.52;;;;;;;8.96;44.44;99221.06;6159439;23;20025;-89
2023/04/24 00:10:52;;;;;;;0.60;0.60;;;;;;;8.96;44.29;99213.78;6131743;23;20096;-89
2023/04/24 00:13:19;;;;;;;0.50;0.50;;;;;;;8.83;44.19;99222.88;6106352;23;20021;-90
2023/04/24 00:15:47;;;;;;;0.50;0.50;;;;;;;8.81;44.61;99216.06;6157001;23;20472;-88
2023/04/24 00:18:17;;;;;;;0.50;0.50;;;;;;;8.70;44.87;99214.97;6157593;23;20571;-89
2023/04/24 00:20:44;;;;;;;0.60;0.60;;;;;;;8.57;45.37;99221.34;6156497;23;20052;-90
2023/04/24 00:23:11;;;;;;;0.50;0.50;;;;;;;8.56;45.18;99224.25;6105665;23;20026;-89
2023/04/24 00:25:39;;;;;;;0.50;0.50;;;;;;;8.61;44.75;99219.88;6106639;23;20478;-90
2023/04/24 00:28:06;;;;;;;0.50;0.50;;;;;;;8.67;44.81;99218.94;6131172;23;20008;-90
2023/04/24 00:30:34;;;;;;;0.50;0.50;;;;;;;8.67;44.59;99223.50;6130990;23;20025;-89
2023/04/24 00:33:02;;;;;;;0.52;0.52;;;;;;;8.66;44.84;99225.38;6130679;23;20021;-90
2023/04/24 00:35:42;;;;;;;0.50;0.50;;;;;;;8.65;45.07;99229.09;6155143;23;20025;-90
2023/04/24 00:38:10;;;;;;;0.50;0.50;;;;;;;8.58;45.11;99222.16;6156788;23;20026;-90
2023/04/24 00:40:37;;;;;;;0.50;0.50;;;;;;;8.51;45.48;99226.81;6157947;23;20025;-91
2023/04/24 00:43:05;;;;;;;0.52;0.52;;;;;;;8.39;45.29;99216.81;6131726;23;20049;-89
2023/04/24 00:45:36;;;;;;;0.50;0.50;;;;;;;8.42;45.52;99226.31;6156321;23;20041;-90
2023/04/24 00:48:04;;;;;;;0.50;0.50;;;;;;;8.37;45.16;99224.25;6158938;23;20116;-91
2023/04/24 00:50:31;;;;;;;0.50;0.50;;;;;;;8.34;45.45;99231.97;6158778;23;20025;-90
2023/04/24 00:53:00;;;;;;;0.50;0.50;;;;;;;8.27;45.45;99220.44;6133203;23;20076;-90
2023/04/24 00:55:27;;;;;;;0.55;0.55;;;;;;;8.32;45.43;99228.66;6134613;23;20376;-90
2023/04/24 00:57:58;;;;;;;0.50;0.50;;;;;;;8.32;44.98;99223.28;6160425;23;20109;-89
2023/04/24 01:00:29;;;;;;;0.50;0.50;;;;;;;8.29;45.46;99221.88;6175443;23;20017;-89
2023/04/24 01:02:58;;;;;;;0.50;0.50;;;;;;;8.30;45.40;99220.81;6126340;23;20021;-89
2023/04/24 01:05:28;;;;;;;0.50;0.50;;;;;;;8.27;45.40;99228.50;6116384;23;20052;-89
2023/04/24 01:07:55;;;;;;;0.50;0.50;;;;;;;8.21;45.20;99216.78;6160309;23;20025;-89
2023/04/24 01:10:23;;;;;;;0.50;0.50;;;;;;;8.21;45.46;99219.47;6157915;23;20026;-89
2023/04/24 01:12:52;;;;;;;0.50;0.50;;;;;;;8.21;45.20;99220.28;6136762;23;20033;-90
2023/04/24 01:15:19;;;;;;;0.50;0.50;;;;;;;8.18;45.38;99222.63;6136315;23;20037;-90
2023/04/24 01:17:49;;;;;;;0.60;0.60;;;;;;;8.15;45.28;99215.84;6161778;23;20041;-89
2023/04/24 01:20:20;;;;;;;0.50;0.50;;;;;;;8.09;45.81;99216.72;6159559;23;20025;-90
2023/04/24 01:22:48;;;;;;;0.50;0.50;;;;;;;8.04;45.53;99213.88;6158343;23;20029;-89
2023/04/24 01:25:18;;;;;;;0.50;0.50;;;;;;;8.01;45.61;99219.69;6158668;23;20124;-89
2023/04/24 01:27:46;;;;;;;0.50;0.50;;;;;;;7.95;45.93;99209.81;6108178;23;20544;-89
2023/04/24 01:30:14;;;;;;;0.50;0.50;;;;;;;7.93;45.79;99211.94;6110542;23;20028;-89
2023/04/24 01:32:44;;;;;;;0.50;0.50;;;;;;;7.97;45.95;99213.09;6131880;23;20338;-89
2023/04/24 01:35:11;;;;;;;0.50;0.50;;;;;;;7.98;45.95;99212.06;6131742;23;20335;-89
2023/04/24 01:37:39;;;;;;;0.50;0.50;;;;;;;7.99;45.80;99208.34;6157795;23;20041;-90
2023/04/24 01:40:07;;;;;;;0.50;0.50;;;;;;;7.97;45.95;99207.72;6135129;23;20025;-90
2023/04/24 01:42:34;;;;;;;0.50;0.50;;;;;;;8.00;46.02;99210.81;6158749;23;20049;-90
2023/04/24 01:45:03;;;;;;;0.50;0.50;;;;;;;8.02;45.83;99207.88;6159693;23;20030;-89
2023/04/24 01:47:33;;;;;;;0.50;0.50;;;;;;;8.00;45.94;99209.97;6061946;23;20120;-89
2023/04/24 01:50:03;;;;;;;0.50;0.50;;;;;;;7.90;46.06;99204.28;6158462;23;20025;-89
2023/04/24 01:52:33;;;;;;;0.60;0.60;;;;;;;7.66;46.16;99185.31;6158485;23;20025;-89
2023/04/24 01:55:00;;;;;;;0.60;0.60;;;;;;;7.80;46.32;99204.81;6133275;23;20109;-87
2023/04/24 01:57:30;;;;;;;0.50;0.50;;;;;;;7.79;46.40;99203.97;6158739;23;20112;-88
2023/04/24 01:59:57;;;;;;;0.50;0.50;;;;;;;7.85;46.53;99209.50;6109152;23;20052;-89
2023/04/24 02:02:27;;;;;;;0.52;0.52;;;;;;;7.86;46.53;99209.28;6143264;23;20049;-88
2023/04/24 02:04:57;;;;;;;0.50;0.50;;;;;;;7.84;46.41;99210.56;6148037;23;20021;-86
2023/04/24 02:07:24;;;;;;;0.50;0.50;;;;;;;7.85;46.36;99209.50;6146480;23;20403;-87
2023/04/24 02:09:51;;;;;;;0.60;0.60;;;;;;;7.80;46.55;99208.31;6159596;23;20017;-88
2023/04/24 02:12:18;;;;;;;0.55;0.55;;;;;;;7.78;46.38;99206.91;6130436;23;20045;-88
2023/04/24 02:14:45;;;;;;;0.50;0.50;;;;;;;7.78;46.66;99206.91;6159373;23;20017;-89
2023/04/24 02:17:13;;;;;;;0.50;0.50;;;;;;;7.80;46.64;99212.88;6162827;23;20028;-90
2023/04/24 02:19:41;;;;;;;0.50;0.50;;;;;;;7.77;46.75;99205.25;6110848;23;20077;-88
2023/04/24 02:22:13;;;;;;;0.50;0.50;;;;;;;7.78;46.57;99207.72;6109977;23;20025;-89
2023/04/24 02:24:43;;;;;;;0.50;0.50;;;;;;;7.73;46.75;99215.63;6158756;23;20515;-88
2023/04/24 02:27:18;;;;;;;0.60;0.60;;;;;;;7.78;46.65;99204.22;6159866;23;20049;-89
2023/04/24 02:29:46;;;;;;;0.50;0.50;;;;;;;7.68;46.58;99196.66;6109210;23;20025;-90
2023/04/24 02:32:15;;;;;;;0.50;0.50;;;;;;;7.77;46.75;99216.81;6157630;23;20025;-88
2023/04/24 02:34:43;;;;;;;0.50;0.50;;;;;;;7.77;46.67;99219.50;6132533;23;20026;-89
2023/04/24 02:37:12;;;;;;;0.60;0.60;;;;;;;7.61;46.61;99190.50;6100010;23;20018;-89
2023/04/24 02:39:39;;;;;;;0.50;0.50;;;;;;;7.78;46.49;99209.59;6124210;23;20395;-89
2023/04/24 02:42:07;;;;;;;0.60;0.60;;;;;;;7.85;46.42;99218.41;6123335;23;20499;-87
2023/04/24 02:44:34;;;;;;;0.60;0.60;;;;;;;7.86;46.26;99224.59;6074659;23;20026;-88
2023/04/24 02:47:02;;;;;;;0.60;0.60;;;;;;;7.89;46.31;99226.84;6124949;23;20029;-87
2023/04/24 02:49:32;;;;;;;0.60;0.60;;;;;;;7.96;46.32;99230.28;6125130;23;20081;-87
2023/04/24 02:52:03;;;;;;;0.50;0.50;;;;;;;7.99;46.00;99219.91;6077649;23;20247;-88
2023/04/24 02:54:30;;;;;;;0.70;0.70;;;;;;;8.09;45.78;99230.16;6104109;23;20036;-87
2023/04/24 02:56:57;;;;;;;0.60;0.60;;;;;;;8.12;45.69;99231.56;6133348;23;20029;-88
2023/04/24 02:59:27;;;;;;;0.60;0.60;;;;;;;8.18;45.50;99233.38;6114708;23;20077;-88
2023/04/24 03:01:56;;;;;;;0.60;0.60;;;;;;;8.18;45.40;99230.69;6124894;23;20084;-87
2023/04/24 03:04:23;;;;;;;0.60;0.60;;;;;;;8.21;45.51;99241.81;6124309;23;20025;-90
2023/04/24 03:06:54;;;;;;;0.60;0.60;;;;;;;8.32;45.03;99234.03;6101303;23;20026;-89
2023/04/24 03:09:24;;;;;;;0.60;0.60;;;;;;;8.41;45.27;99228.19;6129296;23;20080;-86
2023/04/24 03:11:52;;;;;;;0.60;0.60;;;;;;;8.42;45.02;99229.00;6128585;23;20117;-87
2023/04/24 03:14:19;;;;;;;0.65;0.65;;;;;;;8.52;44.88;99228.47;6154103;23;20022;-87
2023/04/24 03:16:50;;;;;;;0.60;0.60;;;;;;;8.57;44.91;99234.00;6133307;23;20036;-87
2023/04/24 03:19:18;;;;;;;0.60;0.60;;;;;;;8.56;44.61;99221.56;6155916;23;20454;-87
2023/04/24 03:21:58;;;;;;;0.50;0.50;;;;;;;8.70;44.37;99241.06;6153133;23;20021;-86
2023/04/24 03:24:30;;;;;;;0.60;0.60;;;;;;;8.75;44.24;99236.66;6155635;23;20049;-88
2023/04/24 03:26:58;;;;;;;0.60;0.60;;;;;;;8.85;43.98;99238.81;6130053;23;20124;-87
2023/04/24 03:29:53;;;;;;;0.60;0.60;;;;;;;8.89;43.84;99231.94;6129441;23;20448;-88
2023/04/24 03:32:22;;;;;;;0.60;0.60;;;;;;;8.96;43.63;99240.72;6129157;23;20121;-87
2023/04/24 03:34:51;;;;;;;0.60;0.60;;;;;;;9.01;43.28;99237.34;6129459;23;20036;-87
2023/04/24 03:37:19;;;;;;;0.60;0.60;;;;;;;9.13;43.66;99240.09;6135094;23;20029;-90
2023/04/24 03:39:56;;;;;;;0.60;0.60;;;;;;;9.39;42.99;99245.06;6138553;23;20022;-91
2023/04/24 03:42:29;;;;;;;0.60;0.60;;;;;;;9.41;42.96;99242.16;6109813;23;20056;-90
2023/04/24 03:44:59;;;;;;;0.60;0.60;;;;;;;9.44;42.93;99242.50;6085080;23;20021;-89
2023/04/24 03:47:43;;;;;;;0.50;0.50;;;;;;;9.51;42.74;99243.22;6061862;23;20025;-87
2023/04/24 03:50:16;;;;;;;0.50;0.50;;;;;;;9.56;42.89;99245.22;6127404;23;20461;-85
2023/04/24 03:52:46;;;;;;;0.60;0.60;;;;;;;9.60;42.84;99248.28;6152721;23;20029;-86
2023/04/24 03:55:32;;;;;;;0.60;0.60;;;;;;;9.67;42.63;99248.97;6131460;23;20033;-90
2023/04/24 03:58:14;;;;;;;0.57;0.57;;;;;;;9.62;42.59;99241.63;6111064;23;20033;-87
2023/04/24 04:00:46;;;;;;;0.60;0.60;;;;;;;9.68;42.51;99248.75;6133068;23;20022;-91
2023/04/24 04:03:51;;;;;;;0.60;0.60;;;;;;;9.87;42.25;99265.63;6117493;23;20563;-90
2023/04/24 04:06:26;;;;;;;0.50;0.50;;;;;;;9.92;42.56;99254.16;6128729;23;20025;-89
2023/04/24 04:08:58;;;;;;;0.60;0.60;;;;;;;10.02;42.78;99264.34;6082435;23;20144;-91
2023/04/24 04:11:26;;;;;;;0.60;0.60;;;;;;;10.05;42.44;99259.34;6080915;23;20077;-91
2023/04/24 04:13:54;;;;;;;0.60;0.60;;;;;;;10.16;42.38;99255.00;6130428;23;20046;-90
2023/04/24 04:16:28;;;;;;;0.60;0.60;;;;;;;10.17;42.36;99248.53;6131013;23;20025;-89
2023/04/24 04:19:02;;;;;;;0.60;0.60;;;;;;;10.34;42.33;99257.56;6094493;23;20053;-90
2023/04/24 04:21:52;;;;;;;0.50;0.50;;;;;;;10.41;42.15;99265.56;6117586;23;20037;-91
2023/04/24 04:24:30;;;;;;;0.50;0.50;;;;;;;10.43;41.83;99259.91;6090806;23;20037;-92
2023/04/24 04:27:00;;;;;;;0.60;0.60;;;;;;;10.48;41.60;99271.66;6114549;23;20416;-90
2023/04/24 04:29:31;;;;;;;0.60;0.60;;;;;;;10.56;41.23;99267.75;6106370;23;20026;-90
2023/04/24 04:32:01;;;;;;;0.60;0.60;;;;;;;10.62;41.28;99272.19;6095215;23;20029;-89
2023/04/24 04:34:31;;;;;;;0.50;0.50;;;;;;;10.65;41.05;99271.72;6068045;23;20023;-87
2023/04/24 04:37:01;;;;;;;0.50;0.50;;;;;;;10.64;40.73;99261.97;6091161;23;20022;-91
2023/04/24 04:39:39;;;;;;;0.60;0.60;;;;;;;10.73;40.84;99271.31;6044186;23;20022;-89
2023/04/24 04:42:11;;;;;;;0.60;0.60;;;;;;;10.77;41.02;99275.19;6091175;23;20057;-88
2023/04/24 04:44:44;;;;;;;0.60;0.60;;;;;;;10.79;41.46;99265.00;6103916;23;20026;-96
2023/04/24 04:47:40;;;;;;;0.57;0.57;;;;;;;10.93;40.95;99270.09;6099610;23;20022;-91
2023/04/24 04:50:11;;;;;;;0.60;0.60;;;;;;;11.02;41.14;99280.28;6045119;23;20102;-92
2023/04/24 04:53:26;;;;;;;0.60;0.60;;;;;;;11.25;40.79;99279.38;6010762;23;20023;-91
2023/04/24 04:55:59;;;;;;;0.60;0.60;;;;;;;11.18;40.84;99262.47;6043251;23;20023;-95
2023/04/24 04:58:56;;;;;;;0.60;0.60;;;;;;;11.21;40.53;99266.56;6010236;23;20015;-93
2023/04/24 05:01:41;;;;;;;;;;;;;;;11.43;40.54;99277.53;6027233;23;20023;-93
2023/04/24 05:04:11;;;;;;;0.50;0.50;;;;;;;11.52;40.48;99276.06;6074879;23;19956;-94
2023/04/24 05:06:57;;;;;;;0.50;0.50;;;;;;;11.57;40.02;99269.91;6038878;23;20056;-93
2023/04/24 05:09:44;;;;;;;0.60;0.60;;;;;;;11.73;39.85;99273.72;6006247;23;20079;-95
2023/04/24 05:12:13;;;;;;;0.50;0.50;;;;;;;11.85;39.83;99258.19;6050425;23;20050;-94
2023/04/24 05:14:48;;;;;;;0.60;0.60;;;;;;;11.95;39.26;99261.13;5976741;23;20130;-94
2023/04/24 05:17:16;;;;;;;0.60;0.60;;;;;;;12.10;39.70;99277.56;6025532;23;20031;-93
2023/04/24 05:19:58;;;;;;;0.60;0.60;;;;;;;12.18;39.20;99280.91;6022561;23;20023;-94
2023/04/24 05:22:29;;;;;;;0.50;0.50;;;;;;;12.26;39.50;99285.91;6023309;23;20031;-93
2023/04/24 05:25:15;;;;;;;0.60;0.60;;;;;;;12.31;39.30;99261.63;6001143;23;20460;-92
2023/04/24 05:27:53;;;;;;;0.60;0.60;;;;;;;12.43;38.98;99256.94;6067015;23;20034;-93
2023/04/24 05:30:33;;;;;;;0.60;0.60;;;;;;;12.63;38.83;99277.19;6066426;23;20022;-95
2023/04/24 05:33:00;;;;;;;0.50;0.50;;;;;;;12.61;38.72;99273.91;6078686;23;20077;-93
2023/04/24 05:38:36;;;;;;;0.50;0.50;;;;;;;12.71;39.09;99252.38;6299246;22;20007;-94
2023/04/24 05:41:06;;;;;;;0.50;0.50;;;;;;;12.94;38.60;99273.00;6264799;22;20027;-90
2023/04/24 05:43:34;;;;;;;0.50;0.50;;;;;;;13.01;38.64;99257.34;6230611;22;20020;-91
2023/04/24 05:46:02;;;;;;;0.50;0.50;;;;;;;13.13;38.52;99268.03;6289421;22;20050;-91
2023/04/24 05:48:30;;;;;;;0.50;0.50;;;;;;;13.26;38.69;99269.53;6234165;22;20038;-90
2023/04/24 05:51:03;;;;;;;0.50;0.50;;;;;;;13.41;38.11;99270.53;6268740;22;20435;-90
2023/04/24 05:53:31;;;;;;;0.50;0.50;;;;;;;13.54;38.03;99272.00;6267053;22;20038;-90
2023/04/24 05:55:58;;;;;;;0.50;0.50;;;;;;;13.63;38.21;99275.06;6262274;22;20030;-89
2023/04/24 05:58:30;;;;;;;0.50;0.50;;;;;;;13.84;37.76;99271.44;6275644;22;20020;-96
2023/04/24 06:01:01;;;;;;;0.50;0.50;;;;;;;13.94;37.52;99281.56;6246461;22;20023;-92
2023/04/24 06:03:41;;;;;;;0.50;0.50;;;;;;;13.98;37.42;99273.72;6261730;22;20087;-95
2023/04/24 06:06:20;;;;;;;;;;;;;;;;;;;;;
2023/04/24 06:22:33;;;;;;;0.50;0.50;;;;;;;14.62;37.46;99273.59;6238535;23;20036;-96
2023/04/24 06:25:05;;;;;;;0.50;0.50;;;;;;;14.79;37.70;99267.16;6208212;23;20034;-96
2023/04/24 06:28:01;;;;;;;0.50;0.50;;;;;;;15.16;37.24;99283.28;6212823;23;20008;-95
2023/04/24 06:30:31;;;;;;;0.50;0.50;;;;;;;15.22;35.84;99270.53;6212388;23;20024;-96
2023/04/24 06:33:25;;;;;;;0.43;0.43;;;;;;;15.20;36.05;99259.94;6211018;23;20325;-92
2023/04/24 06:42:58;;;;;;;0.50;0.50;;;;;;;15.90;34.79;99273.91;6254467;22;20028;-93
2023/04/24 06:45:48;;;;;;;0.40;0.40;;;;;;;15.88;34.40;99267.91;6266942;23;20074;-96
2023/04/24 06:48:29;;;;;;;0.50;0.50;;;;;;;16.06;35.07;99271.19;6217959;23;20020;-95
2023/04/24 06:51:32;;;;;;;0.40;0.40;;;;;;;16.22;34.50;99273.59;6168764;23;20086;-96
2023/04/24 06:54:44;;;;;;;0.40;0.40;;;;;;;16.45;33.68;99272.16;6142725;23;20762;-94
2023/04/24 06:57:12;;;;;;;0.40;0.40;;;;;;;16.65;33.79;99290.38;6146565;23;20013;-95
2023/04/24 06:59:56;;;;;;;0.40;0.40;;;;;;;16.74;33.69;99277.00;6072875;23;20030;-94
2023/04/24 07:02:45;;;;;;;0.40;0.40;;;;;;;16.78;33.33;99271.81;6031401;23;20026;-93
2023/04/24 07:05:15;;;;;;;0.40;0.40;;;;;;;16.94;33.50;99272.56;6121139;23;20022;-92
2023/04/24 07:08:33;;;;;;;0.40;0.40;;;;;;;17.29;33.19;99282.47;6141001;23;20009;-85
2023/04/24 07:11:33;;;;;;;0.40;0.40;;;;;;;17.43;31.60;99277.22;6242278;22;20004;-84
2023/04/24 07:14:04;;;;;;;0.40;0.40;;;;;;;17.38;30.36;99272.59;6192272;22;20008;-94
2023/04/24 07:16:32;;;;;;;0.40;0.40;;;;;;;17.21;30.49;99267.50;6265630;23;20004;-92
2023/04/24 07:19:00;;;;;;;0.40;0.40;;;;;;;17.42;30.50;99302.84;6247654;23;20027;-92
2023/04/24 07:21:27;;;;;;;0.50;0.50;;;;;;;17.45;29.84;99267.66;6204921;23;20030;-93
2023/04/24 07:27:02;;;;;;;0.40;0.40;;;;;;;17.86;30.00;99277.47;6237185;22;20039;-92
2023/04/24 07:29:37;;;;;;;0.50;0.50;;;;;;;17.96;29.23;99269.19;6252686;22;20011;-95
2023/04/24 07:32:22;;;;;;;0.50;0.50;;;;;;;18.09;28.05;99279.44;6215158;23;20015;-95
2023/04/24 07:35:41;;;;;;;0.50;0.50;;;;;;;18.13;27.81;99275.06;6230693;23;20032;31
2023/04/24 07:38:22;;;;;;;0.50;0.50;;;;;;;18.24;27.46;99275.75;6083178;23;20464;-96
2023/04/24 07:41:03;;;;;;;0.50;0.50;;;;;;;18.46;26.81;99266.22;6046834;23;20079;-96
2023/04/24 07:43:37;;;;;;;0.40;0.40;;;;;;;18.72;26.49;99261.31;6115637;23;20022;-96
2023/04/24 07:50:58;;;;;;;0.50;0.50;;;;;;;19.12;25.96;99248.25;6123915;23;20017;-89
2023/04/24 07:53:31;;;;;;;0.47;0.47;;;;;;;19.35;25.26;99274.72;6099976;23;20004;-93
2023/04/24 07:55:59;;;;;;;0.50;0.50;;;;;;;19.31;24.20;99279.13;6097627;23;20042;-94
2023/04/24 07:58:27;;;;;;;0.50;0.50;;;;;;;19.11;24.31;99255.63;6123859;23;20062;-94
2023/04/24 08:01:42;;;;;;;0.50;0.50;;;;;;;19.45;23.65;99244.47;6093367;23;20026;-90
2023/04/24 08:04:22;;;;;;;0.40;0.40;;;;;;;19.34;24.16;99264.84;6101291;23;20018;-89
2023/04/24 08:06:50;;;;;;;0.50;0.50;;;;;;;19.48;23.67;99249.34;6123418;23;20190;-95
2023/04/24 08:09:18;;;;;;;0.50;0.50;;;;;;;19.49;23.39;99255.63;6096285;23;20025;-93
2023/04/24 08:11:46;;;;;;;0.50;0.50;;;;;;;19.66;23.50;99257.81;6118558;23;20018;-94
2023/04/24 08:14:14;;;;;;;0.50;0.50;;;;;;;19.79;23.76;99239.84;6096390;23;20008;-93
2023/04/24 08:17:13;;;;;;;;;;;;;;;20.34;23.34;99257.22;6080329;23;20077;-93
2023/04/24 08:19:47;;;;;;;0.50;0.50;;;;;;;20.67;22.93;99248.91;6090832;23;19944;-94
2023/04/24 08:22:15;;;;;;;0.50;0.50;;;;;;;21.12;22.36;99243.59;6120526;23;20466;-92
2023/04/24 08:24:44;;;;;;;0.50;0.50;;;;;;;21.47;22.30;99259.56;6141201;23;20022;-91
2023/04/24 08:36:47;;;;;;;0.50;0.50;;;;;;;21.91;20.87;99252.47;6292496;22;20047;-94
2023/04/24 08:39:17;;;;;;;0.47;0.47;;;;;;;22.19;20.80;99217.38;6292403;22;20038;-92
2023/04/24 08:41:49;;;;;;;0.30;0.30;;;;;;;21.58;21.39;99225.25;6295572;22;20007;-95
2023/04/24 08:44:20;;;;;;;0.40;0.40;;;;;;;20.42;22.17;99241.19;6295692;22;20019;-88
2023/04/24 08:50:05;;;;;;;0.60;0.60;;;;;;;21.28;22.10;99216.59;6180408;23;20032;-91
2023/04/24 08:52:37;;;;;;;0.50;0.50;;;;;;;22.24;20.88;99211.78;6165957;23;20065;-92
2023/04/24 08:55:08;;;;;;;0.60;0.60;;;;;;;22.23;20.33;99232.97;6169683;23;20021;-94
2023/04/24 08:57:38;;;;;;;0.57;0.57;;;;;;;22.27;20.46;99219.38;6155147;23;20021;-90
2023/04/24 09:00:35;;;;;;;0.40;0.40;;;;;;;22.88;20.41;99219.56;6151257;23;20001;-89
2023/04/24 09:03:43;;;;;;;0.60;0.60;;;;;;;23.77;19.63;99231.13;6148398;23;20006;-92
2023/04/24 09:07:04;;;;;;;0.60;0.60;;;;;;;23.62;19.50;99226.09;6120917;23;20085;-94
2023/04/24 09:09:32;;;;;;;0.60;0.60;;;;;;;24.12;19.51;99207.03;6162579;23;20037;-90
2023/04/24 09:12:01;;;;;;;0.50;0.50;;;;;;;24.70;19.17;99217.69;6146854;23;20034;-89
2023/04/24 09:14:31;;;;;;;0.50;0.50;;;;;;;24.90;18.43;99203.13;6242028;22;20029;-94
2023/04/24 09:22:37;;;;;;;0.50;0.50;;;;;;;24.57;18.21;99214.03;6238472;23;20029;-93
2023/04/24 09:25:07;;;;;;;0.50;0.50;;;;;;;24.62;18.55;99200.84;6231872;23;20074;-94
2023/04/24 09:28:03;;;;;;;0.50;0.50;;;;;;;25.25;17.71;99200.13;6225870;23;20021;-95
2023/04/24 09:30:32;;;;;;;0.50;0.50;;;;;;;23.10;19.45;99199.41;6230307;23;20558;-96
2023/04/24 09:33:19;;;;;;;0.60;0.60;;;;;;;23.68;19.20;99200.81;6237917;23;20044;-95
2023/04/24 09:35:52;;;;;;;0.60;0.60;;;;;;;24.02;18.62;99182.59;6196049;23;20029;-91
2023/04/24 09:38:40;;;;;;;0.50;0.50;;;;;;;25.14;18.11;99188.63;6241753;22;20021;-94
2023/04/24 09:41:26;;;;;;;0.50;0.50;;;;;;;25.73;17.16;99193.19;6237950;22;20115;-93
2023/04/24 09:44:22;;;;;;;0.50;0.50;;;;;;;25.96;17.30;99198.34;6194290;23;20079;-93
2023/04/24 09:46:58;;;;;;;0.30;0.30;;;;;;;24.99;18.05;99192.84;6232570;23;20099;-93
2023/04/24 09:49:26;;;;;;;;;;;;;;;23.63;19.07;99194.69;6205929;23;20024;-92
2023/04/24 09:52:11;;;;;;;0.60;0.60;;;;;;;23.23;19.41;99192.91;6145517;23;20212;-94
2023/04/24 09:54:42;;;;;;;0.60;0.60;;;;;;;23.29;19.26;99172.34;6223751;23;20021;-92
2023/04/24 09:57:09;;;;;;;0.50;0.50;;;;;;;24.41;18.69;99166.88;6220951;23;20021;-94
2023/04/24 09:59:46;;;;;;;0.60;0.60;;;;;;;25.10;18.46;99187.72;6199793;23;20020;-95
2023/04/24 10:02:21;;;;;;;0.50;0.50;;;;;;;25.89;17.50;99180.34;6197461;23;20031;-92
2023/04/24 10:04:56;;;;;;;0.50;0.50;;;;;;;26.20;17.41;99179.00;6171045;23;20440;-92
2023/04/24 10:07:26;;;;;;;0.30;0.30;;;;;;;24.82;18.19;99171.69;6222021;23;20020;-93
2023/04/24 10:09:54;;;;;;;0.60;0.60;;;;;;;24.55;18.23;99184.00;6218475;23;20517;-91
2023/04/24 10:12:47;;;;;;;0.60;0.60;;;;;;;25.14;17.52;99165.75;6269486;22;19997;-88
2023/04/24 10:15:17;;;;;;;0.60;0.60;;;;;;;25.21;17.58;99160.53;6136895;23;20480;-95
2023/04/24 10:17:54;;;;;;;0.60;0.60;;;;;;;25.99;16.21;99143.16;6146189;23;20025;-96
2023/04/24 10:20:26;;;;;;;0.50;0.50;;;;;;;26.57;16.37;99156.91;6139856;23;20048;-95
2023/04/24 10:22:55;;;;;;;0.50;0.50;;;;;;;27.00;16.02;99144.38;6145560;23;20149;-95
2023/04/24 10:25:35;;;;;;;0.50;0.50;;;;;;;27.84;15.63;99162.97;6086711;23;20038;-94
2023/04/24 10:28:03;;;;;;;0.50;0.50;;;;;;;27.73;15.31;99154.34;6127063;23;20041;-91
2023/04/24 10:30:41;;;;;;;0.50;0.50;;;;;;;27.25;15.55;99152.63;6140712;23;20034;-92
2023/04/24 10:33:13;;;;;;;0.50;0.50;;;;;;;27.22;15.67;99129.22;6140422;23;20012;-93
2023/04/24 10:36:12;;;;;;;0.50;0.50;;;;;;;27.92;15.31;99162.00;6075670;23;20044;-94
2023/04/24 10:38:41;;;;;;;0.50;0.50;;;;;;;27.83;15.39;99155.84;6114465;23;20022;-90
2023/04/24 10:41:19;;;;;;;0.50;0.50;;;;;;;27.60;15.19;99152.78;6099687;23;20065;-93
2023/04/24 10:43:48;;;;;;;0.50;0.50;;;;;;;27.67;15.48;99161.31;6081239;23;20113;-92
2023/04/24 10:46:21;;;;;;;0.40;0.40;;;;;;;27.77;15.33;99141.38;6073464;23;20303;-91
2023/04/24 10:48:55;;;;;;;0.47;0.47;;;;;;;27.18;15.50;99154.03;6086494;23;20037;-90
2023/04/24 10:51:28;;;;;;;0.50;0.50;;;;;;;26.63;15.89;99152.75;6105257;23;20025;-90
2023/04/24 10:53:57;;;;;;;0.40;0.40;;;;;;;26.15;16.69;99146.84;6059375;23;20018;-93
2023/04/24 10:56:34;;;;;;;0.20;0.20;;;;;;;24.45;17.87;99145.78;6080136;23;20054;-89
2023/04/24 10:59:02;;;;;;;0.30;0.30;;;;;;;23.84;18.54;99148.78;6125833;23;20026;-87
2023/04/24 11:01:32;;;;;;;0.60;0.60;;;;;;;24.52;18.05;99146.06;6050617;23;20080;-89
2023/04/24 11:04:02;;;;;;;0.50;0.50;;;;;;;27.24;16.55;99132.41;6131001;23;20026;-87
2023/04/24 11:06:35;;;;;;;0.30;0.30;;;;;;;28.40;15.52;99129.50;6128646;23;20033;-88
2023/04/24 11:09:12;;;;;;;0.20;0.20;;;;;;;26.49;16.58;99124.63;6119425;23;20361;-88
2023/04/24 11:11:45;;;;;;;0.20;0.20;;;;;;;25.11;17.44;99133.28;6119762;23;20105;-87
2023/04/24 11:14:15;;;;;;;0.20;0.20;;;;;;;23.82;18.38;99133.72;6138499;23;20026;-88
2023/04/24 11:17:01;;;;;;;0.30;0.30;;;;;;;23.85;18.46;99125.63;6123837;23;20026;-90
2023/04/24 11:19:31;;;;;;;0.60;0.60;;;;;;;25.33;17.05;99116.38;6075453;23;20534;-90
2023/04/24 11:22:06;;;;;;;0.60;0.60;;;;;;;27.39;15.82;99117.81;6148012;23;20017;-85
2023/04/24 11:24:42;;;;;;;0.50;0.50;;;;;;;29.21;15.61;99106.69;6147477;23;20028;-85
2023/04/24 11:27:20;;;;;;;0.40;0.40;;;;;;;30.45;14.02;99109.25;6121167;23;20021;-86
2023/04/24 11:29:53;;;;;;;0.43;0.43;;;;;;;29.11;13.88;99107.28;6147459;23;20033;-86
2023/04/24 11:32:37;;;;;;;0.50;0.50;;;;;;;28.28;14.61;99121.25;6146979;23;20026;-86
2023/04/24 11:35:06;;;;;;;0.40;0.40;;;;;;;27.87;14.98;99110.38;6149336;23;20033;-86
2023/04/24 11:37:48;;;;;;;0.50;0.50;;;;;;;28.48;14.72;99100.75;6124252;23;20360;-87
2023/04/24 11:40:39;;;;;;;0.40;0.40;;;;;;;27.75;14.93;99104.91;6148132;23;20034;-87
2023/04/24 11:43:10;;;;;;;0.40;0.40;;;;;;;28.72;14.26;99082.25;6122294;23;20062;-87
2023/04/24 11:45:48;;;;;;;0.40;0.40;;;;;;;30.08;13.83;99087.63;6149640;23;20036;-88
2023/04/24 11:48:19;;;;;;;0.40;0.40;;;;;;;28.51;14.38;99085.34;6148180;23;20117;-85
2023/04/24 11:50:50;;;;;;;0.40;0.40;;;;;;;29.42;14.18;99083.25;6151900;23;20029;-84
2023/04/24 11:53:21;;;;;;;0.40;0.40;;;;;;;30.37;13.21;99076.94;6122791;23;20113;-86
2023/04/24 11:55:48;;;;;;;0.40;0.40;;;;;;;29.90;13.52;99078.97;6149074;23;20025;-85
2023/04/24 11:58:23;;;;;;;0.50;0.50;;;;;;;30.11;13.25;99072.94;6120344;23;20021;-87
2023/04/24 12:00:57;;;;;;;0.40;0.40;;;;;;;30.81;13.04;99070.75;6146788;23;20026;-85
2023/04/24 12:03:24;;;;;;;0.40;0.40;;;;;;;31.31;12.63;99069.38;6122335;23;20093;-86
2023/04/24 12:06:20;;;;;;;0.40;0.40;;;;;;;31.81;12.50;99065.50;6148913;23;20452;-86
2023/04/24 12:08:52;;;;;;;0.40;0.40;;;;;;;31.94;12.47;99056.47;6134120;23;20026;-85
2023/04/24 12:11:20;;;;;;;0.40;0.40;;;;;;;32.32;12.40;99053.53;6147644;23;20029;-85
2023/04/24 12:13:50;;;;;;;0.40;0.40;;;;;;;32.55;12.05;99042.91;6119804;23;20068;-86
2023/04/24 12:16:18;;;;;;;0.40;0.40;;;;;;;32.45;11.83;99054.00;6147290;23;20028;-86
2023/04/24 12:18:50;;;;;;;0.30;0.30;;;;;;;32.38;11.89;99041.59;6171882;23;20033;-85
2023/04/24 12:21:22;;;;;;;0.30;0.30;;;;;;;32.76;11.79;99061.75;6121135;23;20049;-85
2023/04/24 12:23:50;;;;;;;0.30;0.30;;;;;;;31.71;12.30;99056.66;6121661;23;20049;-87
2023/04/24 12:26:19;;;;;;;0.40;0.40;;;;;;;31.64;12.57;99051.00;6120772;23;20045;-85
2023/04/24 12:28:48;;;;;;;0.40;0.40;;;;;;;31.91;12.00;99060.00;6145038;23;20663;-85
2023/04/24 12:31:16;;;;;;;0.10;0.10;;;;;;;29.83;12.98;99044.66;6093885;23;20429;-86
2023/04/24 12:33:46;;;;;;;0.40;0.40;;;;;;;28.76;14.05;99055.34;6148182;23;20033;-85
2023/04/24 12:36:13;;;;;;;0.40;0.40;;;;;;;28.36;14.00;99056.47;6120712;23;20100;-86
2023/04/24 12:38:52;;;;;;;0.50;0.50;;;;;;;28.61;13.49;99054.28;6147948;23;20108;-86
2023/04/24 12:41:22;;;;;;;0.40;0.40;;;;;;;28.58;13.59;99054.19;6122635;23;20049;-87
2023/04/24 12:43:53;;;;;;;0.40;0.40;;;;;;;29.03;13.49;99061.06;6148729;23;20260;-85
2023/04/24 12:46:23;;;;;;;0.40;0.40;;;;;;;30.06;13.00;99037.09;6121967;23;20732;-84
2023/04/24 12:48:51;;;;;;;0.40;0.40;;;;;;;30.14;13.04;99027.69;6149234;23;20029;-84
2023/04/24 12:51:21;;;;;;;0.40;0.40;;;;;;;29.88;13.12;99024.88;6148641;23;20026;-85
2023/04/24 12:53:48;;;;;;;0.40;0.40;;;;;;;29.52;13.29;99040.94;6122779;23;20045;-85
2023/04/24 12:56:15;;;;;;;0.40;0.40;;;;;;;29.90;13.12;99028.09;6122493;23;20266;-86
2023/04/24 12:58:42;;;;;;;0.40;0.40;;;;;;;30.30;12.91;99040.66;6098635;23;20037;-85
2023/04/24 13:01:10;;;;;;;0.40;0.40;;;;;;;30.67;12.75;99041.56;6074852;23;20017;-84